Time;durP1;ratioP1;P1;durP2;ratioP2;P2;SDS_P1;SDS_P2;PMS_P1;PMS_P2;Temp;Humidity;BMP_temperature;BMP_pressure;BME280_temperature;BME280_humidity;BME280_pressure;Samples;Min_cycle;Max_cycle;Signal;HPM_P1;HPM_P2
2024/04/19 00:02:20;;;;;;;4.93;4.20;;;6.50;99.90;;;;;;5396982;26;20279;-62
2024/04/19 00:04:49;;;;;;;4.97;4.20;;;6.40;99.90;;;;;;5396992;26;20655;-62
2024/04/19 00:07:14;;;;;;;6.23;4.70;;;6.40;99.90;;;;;;5401774;26;20328;-63
2024/04/19 00:09:43;;;;;;;5.07;4.37;;;6.40;99.90;;;;;;5402897;26;20654;-64
2024/04/19 00:12:11;;;;;;;4.83;4.23;;;6.30;99.90;;;;;;5398700;26;20231;-64
2024/04/19 00:14:39;;;;;;;6.93;4.47;;;6.30;99.90;;;;;;5396952;26;20236;-64
2024/04/19 00:17:05;;;;;;;6.23;4.60;;;6.30;99.90;;;;;;5399398;26;20262;-64
2024/04/19 00:19:34;;;;;;;6.10;4.70;;;6.20;99.90;;;;;;5402805;26;20239;-64
2024/04/19 00:21:59;;;;;;;5.43;4.30;;;6.20;99.90;;;;;;5401179;26;20231;-62
2024/04/19 00:24:28;;;;;;;5.67;4.10;;;6.30;99.90;;;;;;5396530;26;20236;-62
2024/04/19 00:26:53;;;;;;;6.50;4.80;;;6.40;99.90;;;;;;5396764;26;20236;-64
2024/04/19 00:29:24;;;;;;;5.47;4.20;;;6.50;99.90;;;;;;5396591;26;20236;-63
2024/04/19 00:31:50;;;;;;;5.00;4.20;;;6.50;99.90;;;;;;5396182;26;20235;-64
2024/04/19 00:34:18;;;;;;;5.07;4.60;;;6.60;99.90;;;;;;5401775;26;20273;-63
2024/04/19 00:36:44;;;;;;;4.87;4.37;;;6.60;99.90;;;;;;5402787;26;20231;-62
2024/04/19 00:39:12;;;;;;;6.47;4.80;;;6.70;99.90;;;;;;5398535;26;20270;-64
2024/04/19 00:41:38;;;;;;;5.20;4.40;;;6.60;99.90;;;;;;5395951;26;20709;-62
2024/04/19 00:44:06;;;;;;;4.57;4.17;;;6.60;99.90;;;;;;5398608;26;20232;-64
2024/04/19 00:46:35;;;;;;;7.20;4.80;;;6.50;99.90;;;;;;5402358;26;20704;-64
2024/04/19 00:49:03;;;;;;;6.80;4.60;;;6.40;99.90;;;;;;5400528;26;20247;-62
2024/04/19 00:51:29;;;;;;;8.37;5.00;;;6.30;99.90;;;;;;5395631;26;20569;-62
2024/04/19 00:53:57;;;;;;;4.80;4.30;;;6.20;99.90;;;;;;5396333;26;20232;-61
2024/04/19 00:56:24;;;;;;;5.67;4.43;;;6.10;99.90;;;;;;5402883;26;20235;-62
2024/04/19 00:58:52;;;;;;;4.33;3.93;;;6.10;99.90;;;;;;5402239;26;20238;-64
2024/04/19 01:01:18;;;;;;;8.47;4.60;;;6.10;99.90;;;;;;5395912;26;20232;-64
2024/04/19 01:03:50;;;;;;;6.53;4.60;;;6.10;99.90;;;;;;5396051;26;20727;-64
2024/04/19 01:06:15;;;;;;;5.27;4.77;;;6.10;99.90;;;;;;5400976;26;20238;-62
2024/04/19 01:08:44;;;;;;;6.67;4.80;;;6.10;99.90;;;;;;5402118;26;20289;-64
2024/04/19 01:11:09;;;;;;;5.63;4.60;;;6.10;99.90;;;;;;5398730;26;20650;-62
2024/04/19 01:13:38;;;;;;;7.80;4.70;;;6.00;99.90;;;;;;5396496;26;20240;-64
2024/04/19 01:16:04;;;;;;;5.37;4.37;;;6.10;99.90;;;;;;5398212;26;20582;-63
2024/04/19 01:18:33;;;;;;;5.17;4.30;;;6.20;99.90;;;;;;5401960;26;20239;-63
2024/04/19 01:21:01;;;;;;;4.70;4.03;;;6.30;99.90;;;;;;5400900;26;20234;-63
2024/04/19 01:23:30;;;;;;;4.77;4.17;;;6.30;99.90;;;;;;5396067;26;20709;-64
2024/04/19 01:25:57;;;;;;;4.10;3.67;;;6.40;99.90;;;;;;5396010;26;20236;-63
2024/04/19 01:28:31;;;;;;;6.23;4.40;;;6.50;99.90;;;;;;5401765;26;20724;-63
2024/04/19 01:30:57;;;;;;;6.17;4.40;;;6.60;99.90;;;;;;5400985;26;20230;-63
2024/04/19 01:33:25;;;;;;;5.10;4.07;;;6.70;99.90;;;;;;5395690;26;20278;-65
2024/04/19 01:35:51;;;;;;;5.23;4.60;;;6.70;99.90;;;;;;5395798;26;20616;-63
2024/04/19 01:38:19;;;;;;;4.60;4.20;;;6.70;99.90;;;;;;5400439;26;20711;-63
2024/04/19 01:40:45;;;;;;;4.20;3.80;;;6.80;99.90;;;;;;5401385;26;20238;-63
2024/04/19 01:43:13;;;;;;;4.97;4.40;;;6.90;99.90;;;;;;5397952;26;20269;-62
2024/04/19 01:45:41;;;;;;;4.90;4.37;;;7.00;99.90;;;;;;5395454;26;20240;-64
2024/04/19 01:48:10;;;;;;;4.90;4.33;;;7.00;99.90;;;;;;5397955;26;20243;-62
2024/04/19 01:50:36;;;;;;;4.57;3.97;;;7.10;99.90;;;;;;5401079;26;20273;-62
2024/04/19 01:53:04;;;;;;;6.20;4.10;;;7.10;99.90;;;;;;5400044;26;20238;-62
2024/04/19 01:55:32;;;;;;;4.60;4.10;;;7.10;99.90;;;;;;5395476;26;20232;-65
2024/04/19 01:57:58;;;;;;;5.97;3.70;;;7.20;99.90;;;;;;5395253;26;20756;-61
2024/04/19 02:00:26;;;;;;;4.40;4.00;;;7.30;99.90;;;;;;5400931;26;20277;-62
2024/04/19 02:02:55;;;;;;;5.93;4.10;;;7.40;99.90;;;;;;5401368;26;20235;-62
2024/04/19 02:05:23;;;;;;;4.57;3.67;;;7.50;99.90;;;;;;5395384;26;20237;-60
2024/04/19 02:07:50;;;;;;;5.57;4.13;;;7.50;99.90;;;;;;5395023;26;20232;-60
2024/04/19 02:10:19;;;;;;;5.17;3.97;;;7.60;99.90;;;;;;5399473;26;20722;-64
2024/04/19 02:12:44;;;;;;;4.13;3.53;;;7.70;99.90;;;;;;5400978;26;20621;-61
2024/04/19 02:15:14;;;;;;;4.33;3.87;;;7.80;99.90;;;;;;5396992;26;20234;-63
2024/04/19 02:17:40;;;;;;;4.53;3.40;;;7.90;99.90;;;;;;5395253;26;20232;-62
2024/04/19 02:20:11;;;;;;;4.83;3.80;;;7.90;99.90;;;;;;5396518;26;20299;-63
2024/04/19 02:22:37;;;;;;;4.27;3.73;;;7.90;99.90;;;;;;5400999;26;20704;-64
2024/04/19 02:25:06;;;;;;;5.47;3.40;;;8.00;99.90;;;;;;5399562;26;20231;-63
2024/04/19 02:33:11;;;;;;;3.33;3.03;;;8.00;99.90;;;;;;5355421;26;20239;-63
2024/04/19 02:35:42;;;;;;;3.93;3.40;;;8.10;99.90;;;;;;5394607;26;20315;-62
2024/04/19 02:38:10;;;;;;;5.93;3.33;;;8.10;99.90;;;;;;5397149;26;20595;-63
2024/04/19 02:40:39;;;;;;;3.80;2.97;;;8.10;99.90;;;;;;5400550;26;20716;-62
2024/04/19 02:43:07;;;;;;;4.83;3.10;;;8.20;99.90;;;;;;5399013;26;20235;-63
2024/04/19 02:45:41;;;;;;;4.47;3.27;;;8.20;99.90;;;;;;5394594;26;20332;-62
2024/04/19 02:48:09;;;;;;;3.80;3.33;;;8.20;99.90;;;;;;5396210;26;20278;-63
2024/04/19 02:50:38;;;;;;;4.47;3.23;;;8.20;99.90;;;;;;5400191;26;20273;-61
2024/04/19 02:53:09;;;;;;;3.37;3.00;;;8.20;99.90;;;;;;5399192;26;20231;-62
2024/04/19 02:55:37;;;;;;;3.00;2.70;;;8.20;99.90;;;;;;5394425;26;20270;-63
2024/04/19 02:58:05;;;;;;;4.73;3.07;;;8.20;99.90;;;;;;5395156;26;20236;-63
2024/04/19 03:00:34;;;;;;;4.67;2.80;;;8.20;99.90;;;;;;5400138;26;20231;-62
2024/04/19 03:03:02;;;;;;;3.13;2.83;;;8.20;99.90;;;;;;5399969;26;20273;-62
2024/04/19 03:05:30;;;;;;;3.37;2.77;;;8.30;99.90;;;;;;5394206;26;20329;-62
2024/04/19 03:07:59;;;;;;;4.40;2.63;;;8.30;99.90;;;;;;5393954;26;20232;-62
2024/04/19 03:10:30;;;;;;;19.70;14.97;;;8.40;99.90;;;;;;5393951;26;20236;-62
2024/04/19 03:12:58;;;;;;;5.27;4.60;;;8.30;99.90;;;;;;5394096;26;20236;-63
2024/04/19 03:15:26;;;;;;;3.30;3.00;;;8.50;99.90;;;;;;5394011;26;20232;-62
2024/04/19 03:17:55;;;;;;;4.20;3.27;;;8.50;99.90;;;;;;5393986;26;20232;-62
2024/04/19 03:20:23;;;;;;;3.93;2.87;;;8.60;99.90;;;;;;5398770;26;20231;-63
2024/04/19 03:22:51;;;;;;;4.67;3.10;;;8.70;99.90;;;;;;5399797;26;20731;-62
2024/04/19 03:25:20;;;;;;;6.50;5.20;;;8.70;99.90;;;;;;5395651;26;20277;-64
2024/04/19 03:27:51;;;;;;;5.37;3.87;;;8.80;99.90;;;;;;5396084;26;20262;-62
2024/04/19 03:30:26;;;;;;;4.67;3.00;;;8.80;99.90;;;;;;5401349;26;20232;-64
2024/04/19 03:32:55;;;;;;;4.07;3.00;;;8.90;99.90;;;;;;5403416;26;20234;-63
2024/04/19 03:35:23;;;;;;;5.07;3.30;;;8.90;99.90;;;;;;5398042;26;20228;-64
2024/04/19 03:37:52;;;;;;;3.57;3.00;;;8.90;99.90;;;;;;5397149;26;20232;-63
2024/04/19 03:40:20;;;;;;;3.50;3.10;;;8.90;99.90;;;;;;5401241;26;20270;-63
2024/04/19 03:42:54;;;;;;;5.20;3.27;;;8.90;99.90;;;;;;5403235;26;20234;-63
2024/04/19 03:48:07;;;;;;;5.40;3.20;;;8.90;99.90;;;;;;5400611;26;20660;-63
2024/04/19 03:50:36;;;;;;;4.10;3.23;;;8.90;99.90;;;;;;5402821;26;20708;-63
2024/04/19 03:53:05;;;;;;;3.90;3.13;;;8.90;99.90;;;;;;5402624;26;20231;-63
2024/04/19 03:55:34;;;;;;;4.40;3.60;;;9.00;99.90;;;;;;5397021;26;20346;-63
2024/04/19 03:58:05;;;;;;;6.40;3.60;;;9.00;99.90;;;;;;5396702;26;20236;-63
2024/04/19 04:00:33;;;;;;;4.40;3.60;;;9.00;99.90;;;;;;5396736;26;20274;-63
2024/04/19 04:03:02;;;;;;;4.97;4.43;;;9.10;99.90;;;;;;5396855;26;20270;-63
2024/04/19 04:05:30;;;;;;;5.50;3.83;;;9.10;99.90;;;;;;5397143;26;20229;-63
2024/04/19 04:07:58;;;;;;;6.53;3.43;;;9.10;99.90;;;;;;5396782;26;20271;-63
2024/04/19 04:10:27;;;;;;;4.97;3.80;;;9.10;99.90;;;;;;5402124;26;20282;-63
2024/04/19 04:12:56;;;;;;;5.30;3.80;;;9.10;99.90;;;;;;5402673;26;20721;-63
2024/04/19 04:15:27;;;;;;;6.27;4.10;;;9.10;99.90;;;;;;5397584;26;20274;-63
2024/04/19 04:17:52;;;;;;;5.23;3.60;;;9.10;99.90;;;;;;5396667;26;20232;-63
2024/04/19 04:20:21;;;;;;;5.10;3.90;;;9.20;99.90;;;;;;5400549;26;20798;-63
2024/04/19 04:22:49;;;;;;;4.40;3.77;;;9.10;99.90;;;;;;5402552;26;20770;-63
2024/04/19 04:25:17;;;;;;;8.53;4.90;;;9.10;99.90;;;;;;5399255;26;20239;-63
2024/04/19 04:27:46;;;;;;;4.90;3.80;;;9.10;99.90;;;;;;5396349;26;20231;-62
2024/04/19 04:30:14;;;;;;;9.70;3.57;;;9.10;99.90;;;;;;5398533;26;20263;-62
2024/04/19 04:32:45;;;;;;;6.27;3.70;;;9.10;99.90;;;;;;5402481;26;20762;-63
2024/04/19 04:35:11;;;;;;;6.53;3.87;;;9.10;99.90;;;;;;5400064;26;20272;-63
2024/04/19 04:37:39;;;;;;;6.17;4.33;;;9.10;99.90;;;;;;5395902;26;20236;-62
2024/04/19 04:40:09;;;;;;;5.53;4.50;;;9.10;99.90;;;;;;5396659;26;20287;-63
2024/04/19 04:42:37;;;;;;;6.00;4.30;;;9.10;99.90;;;;;;5402403;26;20231;-62
2024/04/19 04:45:06;;;;;;;7.87;5.17;;;9.20;99.90;;;;;;5402063;26;20231;-60
2024/04/19 04:47:34;;;;;;;4.70;4.10;;;9.20;99.90;;;;;;5396288;26;20564;-60
2024/04/19 04:50:05;;;;;;;5.93;4.03;;;9.20;99.90;;;;;;5395852;26;20619;-61
2024/04/19 04:52:34;;;;;;;9.00;6.43;;;9.30;99.90;;;;;;5396172;26;20311;-62
2024/04/19 04:55:02;;;;;;;5.63;4.40;;;9.30;99.90;;;;;;5396055;26;20228;-61
2024/04/19 04:57:30;;;;;;;6.87;4.10;;;9.30;99.90;;;;;;5396107;26;20708;-61
2024/04/19 04:59:59;;;;;;;4.57;4.00;;;9.30;99.90;;;;;;5423288;21;20336;-60
2024/04/19 05:02:27;;;;;;;5.10;3.80;;;9.30;99.90;;;;;;5396564;26;20277;-60
2024/04/19 05:04:55;;;;;;;4.40;4.00;;;9.30;99.90;;;;;;5396151;26;20274;-60
2024/04/19 05:07:28;;;;;;;6.33;4.33;;;9.30;99.90;;;;;;5400596;26;20267;-58
2024/04/19 05:09:57;;;;;;;7.67;5.67;;;9.20;99.90;;;;;;5401751;26;20239;-60
2024/04/19 05:12:25;;;;;;;7.57;5.20;;;9.20;99.90;;;;;;5397155;26;20243;-59
2024/04/19 05:14:53;;;;;;;7.20;4.77;;;9.20;99.90;;;;;;5396012;26;20262;-59
2024/04/19 05:17:22;;;;;;;6.83;4.30;;;9.20;99.90;;;;;;5399960;26;20266;-59
2024/04/19 05:19:50;;;;;;;6.47;4.23;;;9.10;99.90;;;;;;5402060;26;20235;-59
2024/04/19 05:22:18;;;;;;;7.30;4.90;;;9.10;99.90;;;;;;5398038;26;20273;-59
2024/04/19 05:24:50;;;;;;;5.20;4.70;;;9.00;99.90;;;;;;5395596;26;20757;-59
2024/04/19 05:27:19;;;;;;;6.90;4.97;;;9.10;99.90;;;;;;5399157;26;20262;-60
2024/04/19 05:29:47;;;;;;;6.33;4.60;;;9.10;99.90;;;;;;5401601;26;20235;-60
2024/04/19 05:32:15;;;;;;;6.43;4.90;;;9.10;99.90;;;;;;5398852;26;20235;-60
2024/04/19 05:34:44;;;;;;;8.57;4.93;;;9.10;99.90;;;;;;5396122;26;20266;-60
2024/04/19 05:37:12;;;;;;;6.43;4.90;;;9.10;99.90;;;;;;5397411;26;20232;-58
2024/04/19 05:39:40;;;;;;;6.47;4.70;;;9.10;99.90;;;;;;5401592;26;20282;-59
2024/04/19 05:42:11;;;;;;;5.93;4.97;;;9.10;99.90;;;;;;5400571;26;20520;-59
2024/04/19 05:44:41;;;;;;;5.27;4.47;;;9.20;99.90;;;;;;5395829;26;20756;-59
2024/04/19 05:47:09;;;;;;;8.97;4.83;;;9.40;99.90;;;;;;5395952;26;20607;-58
2024/04/19 05:49:38;;;;;;;7.87;4.50;;;9.50;99.90;;;;;;5399898;26;20289;-59
2024/04/19 05:52:06;;;;;;;5.37;4.27;;;9.60;99.90;;;;;;5400795;26;20231;-60
2024/04/19 05:54:35;;;;;;;7.20;4.50;;;9.60;99.90;;;;;;5395044;26;20709;-59
2024/04/19 05:57:03;;;;;;;6.60;4.40;;;9.70;99.90;;;;;;5395313;26;20274;-59
2024/04/19 05:59:34;;;;;;;7.10;4.10;;;9.60;99.90;;;;;;5394935;26;20240;-60
2024/04/19 06:02:02;;;;;;;6.13;3.83;;;9.80;99.90;;;;;;5394710;26;20752;-59
2024/04/19 06:04:31;;;;;;;7.30;3.80;;;9.90;99.90;;;;;;5400928;26;20274;-59
2024/04/19 06:06:59;;;;;;;5.30;3.73;;;10.10;99.90;;;;;;5401231;26;20235;-59
2024/04/19 06:09:27;;;;;;;5.93;4.77;;;10.20;99.90;;;;;;5395936;26;20697;-59
2024/04/19 06:11:56;;;;;;;6.13;3.43;;;10.40;99.90;;;;;;5394512;26;20271;-60
2024/04/19 06:14:24;;;;;;;5.97;3.30;;;10.50;99.90;;;;;;5398968;26;20232;-60
2024/04/19 06:16:55;;;;;;;3.93;3.20;;;10.60;99.90;;;;;;5400930;26;20234;-60
2024/04/19 06:19:23;;;;;;;5.30;3.13;;;10.50;99.90;;;;;;5396871;26;20603;-60
2024/04/19 06:21:51;;;;;;;4.37;3.10;;;10.70;99.90;;;;;;5394265;26;20689;-61
2024/04/19 06:24:20;;;;;;;6.53;2.90;;;10.70;99.90;;;;;;5397875;26;20722;-61
2024/04/19 06:26:48;;;;;;;4.67;3.00;;;10.80;99.90;;;;;;5400791;26;20335;-60
2024/04/19 06:29:17;;;;;;;3.97;2.90;;;10.80;99.90;;;;;;5398093;26;20284;-60
2024/04/19 06:31:45;;;;;;;4.07;2.83;;;10.90;99.90;;;;;;5395498;26;20732;-60
2024/04/19 06:34:16;;;;;;;5.37;2.80;;;11.00;99.90;;;;;;5396343;26;20232;-60
2024/04/19 06:36:44;;;;;;;3.67;2.73;;;11.20;99.90;;;;;;5400589;26;20231;-61
2024/04/19 06:39:23;;;;;;;3.60;2.47;;;11.30;99.90;;;;;;5399694;26;20235;-60
2024/04/19 06:41:51;;;;;;;5.50;3.30;;;11.30;99.90;;;;;;5394290;26;20277;-60
2024/04/19 06:44:19;;;;;;;3.70;2.60;;;11.50;99.90;;;;;;5397260;26;20357;-60
2024/04/19 06:46:45;;;;;;;5.10;2.40;;;11.60;99.90;;;;;;5400636;26;20235;-60
2024/04/19 06:49:16;;;;;;;3.83;2.50;;;11.70;99.90;;;;;;5398868;26;20331;-60
2024/04/19 06:51:45;;;;;;;3.57;2.07;;;11.70;99.90;;;;;;5393964;26;20748;-59
2024/04/19 06:54:13;;;;;;;4.30;2.20;;;11.90;99.90;;;;;;5395320;26;20763;-60
2024/04/19 06:56:39;;;;;;;4.13;2.47;;;12.10;99.90;;;;;;5400300;26;20231;-58
2024/04/19 06:59:08;;;;;;;3.10;2.33;;;12.40;99.90;;;;;;5400058;26;20253;-61
2024/04/19 07:01:37;;;;;;;4.73;2.80;;;12.60;99.90;;;;;;5395825;26;20680;-61
2024/04/19 07:04:06;;;;;;;3.23;2.60;;;12.80;99.90;;;;;;5397538;26;20232;-59
2024/04/19 07:06:34;;;;;;;5.93;2.40;;;12.90;99.90;;;;;;5397319;26;20231;-59
2024/04/19 07:09:02;;;;;;;3.70;2.67;;;13.00;99.90;;;;;;5397340;26;20240;-59
2024/04/19 07:11:31;;;;;;;4.47;2.77;;;13.10;99.90;;;;;;5402477;26;20231;-59
2024/04/19 07:14:00;;;;;;;6.20;2.37;;;13.30;99.90;;;;;;5403404;26;20239;-60
2024/04/19 07:16:28;;;;;;;3.67;2.43;;;13.30;99.90;;;;;;5398967;26;20865;-59
2024/04/19 07:18:56;;;;;;;4.00;2.50;;;13.10;99.90;;;;;;5397545;26;20287;-60
2024/04/19 07:21:24;;;;;;;3.53;2.70;;;12.90;99.90;;;;;;5400849;26;20262;-61
2024/04/19 07:23:55;;;;;;;4.43;2.43;;;12.80;99.90;;;;;;5403360;26;20277;-58
2024/04/19 07:26:24;;;;;;;2.83;2.40;;;12.80;99.90;;;;;;5399500;26;20270;-59
2024/04/19 07:28:52;;;;;;;4.97;2.63;;;12.60;99.90;;;;;;5397005;26;20228;-59
2024/04/19 07:31:20;;;;;;;3.53;2.10;;;12.50;99.90;;;;;;5399570;26;20267;-59
2024/04/19 07:33:49;;;;;;;2.77;2.20;;;12.40;99.90;;;;;;5403240;26;20269;-57
2024/04/19 07:36:17;;;;;;;3.73;2.70;;;12.20;99.90;;;;;;5401107;26;20273;-59
2024/04/19 07:38:47;;;;;;;3.33;2.30;;;12.10;99.90;;;;;;5397151;26;20282;-60
2024/04/19 07:41:18;;;;;;;3.23;2.67;;;12.00;99.90;;;;;;5398212;26;20232;-59
2024/04/19 07:43:44;;;;;;;2.80;2.30;;;12.00;99.90;;;;;;5403450;26;20234;-59
2024/04/19 07:46:12;;;;;;;4.23;2.30;;;11.70;99.90;;;;;;5402249;26;20266;-59
2024/04/19 07:48:42;;;;;;;3.50;2.40;;;11.60;99.90;;;;;;5396439;26;20231;-59
2024/04/19 07:51:10;;;;;;;6.17;2.40;;;11.40;99.90;;;;;;5395593;26;20274;-59
2024/04/19 07:53:38;;;;;;;4.50;2.37;;;11.10;99.90;;;;;;5402371;26;20230;-60
2024/04/19 07:56:07;;;;;;;3.57;2.20;;;11.00;99.90;;;;;;5402117;26;20231;-59
2024/04/19 07:58:38;;;;;;;2.90;2.57;;;10.90;99.90;;;;;;5403204;26;20234;-60
2024/04/19 08:01:06;;;;;;;5.60;2.63;;;11.00;99.90;;;;;;5402666;26;20266;-60
2024/04/19 08:03:35;;;;;;;4.17;2.80;;;10.90;99.90;;;;;;5395830;26;20336;-59
2024/04/19 08:06:03;;;;;;;4.30;2.80;;;10.80;99.90;;;;;;5396355;26;20275;-60
2024/04/19 08:08:32;;;;;;;2.90;2.60;;;10.80;99.90;;;;;;5401607;26;20650;-57
2024/04/19 08:11:01;;;;;;;5.73;3.73;;;10.70;99.90;;;;;;5401696;26;20661;-59
2024/04/19 08:13:29;;;;;;;3.57;2.93;;;10.80;99.90;;;;;;5396819;26;20347;-59
2024/04/19 08:16:00;;;;;;;4.00;2.90;;;10.80;99.90;;;;;;5396206;26;20705;-58
2024/04/19 08:18:29;;;;;;;4.50;3.80;;;10.80;99.90;;;;;;5400734;26;20279;-59
2024/04/19 08:20:57;;;;;;;5.03;3.50;;;10.80;99.90;;;;;;5402004;26;20750;-59
2024/04/19 08:23:26;;;;;;;3.53;3.00;;;10.80;99.90;;;;;;5398611;26;20712;-59
2024/04/19 08:25:54;;;;;;;3.97;2.77;;;10.70;99.90;;;;;;5396032;26;20597;-59
2024/04/19 08:28:25;;;;;;;3.00;2.70;;;10.70;99.90;;;;;;5398771;26;20279;-60
2024/04/19 08:30:54;;;;;;;3.33;2.70;;;10.70;99.90;;;;;;5401994;26;20231;-59
2024/04/19 08:33:25;;;;;;;5.20;2.50;;;10.70;99.90;;;;;;5399194;26;20265;-59
2024/04/19 08:35:57;;;;;;;4.43;2.60;;;10.60;99.90;;;;;;5396388;26;20263;-59
2024/04/19 08:38:26;;;;;;;3.00;2.60;;;10.50;99.90;;;;;;5399085;26;20278;-58
2024/04/19 08:40:59;;;;;;;3.47;2.50;;;10.40;99.90;;;;;;5401694;26;20696;-60
2024/04/19 08:43:29;;;;;;;3.40;2.60;;;10.40;99.90;;;;;;5398109;26;20758;-59
2024/04/19 08:45:58;;;;;;;3.73;2.70;;;10.40;99.90;;;;;;5396381;26;20232;-58
2024/04/19 08:48:29;;;;;;;2.83;2.50;;;10.50;99.90;;;;;;5399375;26;20236;-59
2024/04/19 08:51:01;;;;;;;3.47;2.67;;;10.60;99.90;;;;;;5401523;26;20274;-59
2024/04/19 08:53:31;;;;;;;2.80;2.30;;;10.60;99.90;;;;;;5397804;26;20290;-59
2024/04/19 08:56:01;;;;;;;2.83;2.10;;;10.50;99.90;;;;;;5396068;26;20240;-59
2024/04/19 08:58:30;;;;;;;3.33;2.30;;;10.30;99.90;;;;;;5400238;26;20571;-59
2024/04/19 09:01:00;;;;;;;6.37;4.60;;;10.10;99.90;;;;;;5401801;26;20254;-58
2024/04/19 09:03:31;;;;;;;4.00;2.40;;;10.00;99.90;;;;;;5397216;26;20231;-58
2024/04/19 09:05:59;;;;;;;3.53;2.60;;;9.90;99.90;;;;;;5395345;26;20596;-59
2024/04/19 09:08:28;;;;;;;4.00;2.10;;;9.80;99.90;;;;;;5399172;26;20290;-59
2024/04/19 09:10:56;;;;;;;3.37;2.03;;;9.60;99.90;;;;;;5401437;26;20273;-59
2024/04/19 09:13:24;;;;;;;5.27;2.50;;;9.40;99.90;;;;;;5398763;26;20235;-59
2024/04/19 09:15:53;;;;;;;2.40;1.90;;;9.20;99.90;;;;;;5395715;26;20273;-58
2024/04/19 09:18:23;;;;;;;2.13;1.77;;;9.10;99.90;;;;;;5397953;26;20277;-58
2024/04/19 09:20:54;;;;;;;2.33;1.80;;;9.10;99.90;;;;;;5401287;26;20265;-60
2024/04/19 09:23:22;;;;;;;2.00;1.90;;;9.00;99.90;;;;;;5398984;26;20294;-57
2024/04/19 09:25:54;;;;;;;3.80;2.10;;;9.00;99.90;;;;;;5394219;26;20270;-58
2024/04/19 09:28:23;;;;;;;2.20;2.00;;;9.10;99.90;;;;;;5398080;26;20235;-57
2024/04/19 09:30:53;;;;;;;4.27;2.07;;;9.20;99.90;;;;;;5400860;26;20231;-57
2024/04/19 09:33:22;;;;;;;4.27;2.27;;;9.30;99.90;;;;;;5398967;26;20556;-59
2024/04/19 09:35:56;;;;;;;13.73;7.50;;;9.40;99.90;;;;;;5395238;26;20235;-59
2024/04/19 09:38:25;;;;;;;4.30;2.40;;;9.50;99.90;;;;;;5398234;26;20240;-59
2024/04/19 09:40:54;;;;;;;3.90;2.00;;;9.60;99.90;;;;;;5400971;26;20231;-60
2024/04/19 09:43:25;;;;;;;2.87;2.20;;;9.60;99.90;;;;;;5398863;26;20291;-59
2024/04/19 09:45:57;;;;;;;3.53;2.40;;;9.60;99.90;;;;;;5395328;26;20232;-59
2024/04/19 09:48:32;;;;;;;3.07;2.70;;;9.60;99.90;;;;;;5398224;26;20236;-59
2024/04/19 09:51:07;;;;;;;5.17;4.60;;;9.60;99.90;;;;;;5400793;26;20829;-62
2024/04/19 09:53:39;;;;;;;4.07;3.37;;;9.70;99.90;;;;;;5400863;26;20728;-57
2024/04/19 09:56:32;;;;;;;3.50;2.20;;;9.70;99.90;;;;;;5394681;26;20232;-57
2024/04/19 09:59:01;;;;;;;2.93;1.90;;;9.70;99.90;;;;;;5394659;26;20270;-58
2024/04/19 10:01:30;;;;;;;2.30;1.90;;;9.50;99.90;;;;;;5398325;26;20232;-57
2024/04/19 10:04:03;;;;;;;3.17;2.20;;;9.50;99.90;;;;;;5400365;26;20324;-58
2024/04/19 10:06:36;;;;;;;2.20;2.00;;;9.60;99.90;;;;;;5396362;26;20273;-57
2024/04/19 10:09:12;;;;;;;14.13;11.13;;;9.60;99.90;;;;;;5394578;26;20232;-63
2024/04/19 10:11:42;;;;;;;3.20;2.90;;;9.70;99.90;;;;;;5394765;26;20300;-64
2024/04/19 10:14:10;;;;;;;4.20;3.07;;;9.60;99.90;;;;;;5394668;26;20240;-62
2024/04/19 10:16:40;;;;;;;5.43;3.63;;;9.60;99.90;;;;;;5394316;26;20232;-61
2024/04/19 10:19:09;;;;;;;13.70;7.57;;;9.50;99.90;;;;;;5394129;26;20287;-62
2024/04/19 10:21:39;;;;;;;9.03;6.00;;;9.50;99.90;;;;;;5399343;26;20238;-61
2024/04/19 10:24:13;;;;;;;8.90;7.03;;;9.40;99.90;;;;;;5400698;26;20265;-62
2024/04/19 10:26:38;;;;;;;5.23;4.73;;;9.40;99.90;;;;;;5393952;26;20228;-62
2024/04/19 10:29:08;;;;;;;6.13;4.40;;;9.30;99.90;;;;;;5394201;26;20729;-61
2024/04/19 10:31:37;;;;;;;8.27;4.93;;;9.20;99.90;;;;;;5398863;26;20277;-61
2024/04/19 10:34:09;;;;;;;12.80;9.50;;;9.20;99.90;;;;;;5399962;26;20227;-59
2024/04/19 10:36:40;;;;;;;11.67;8.27;;;9.00;99.90;;;;;;5394363;26;20275;-59
2024/04/19 10:39:09;;;;;;;5.27;4.20;;;9.10;99.90;;;;;;5393936;26;20286;-59
2024/04/19 10:41:38;;;;;;;4.20;3.80;;;9.30;99.90;;;;;;5399204;26;20231;-60
2024/04/19 10:44:14;;;;;;;5.20;4.70;;;9.30;99.90;;;;;;5400397;26;20265;-57
2024/04/19 10:46:45;;;;;;;6.10;3.83;;;9.40;99.90;;;;;;5393459;26;20584;-59
2024/04/19 10:49:15;;;;;;;7.57;4.90;;;9.40;99.90;;;;;;5394032;26;20741;-59
2024/04/19 10:51:46;;;;;;;4.93;3.70;;;9.50;99.90;;;;;;5393766;26;20224;-59
2024/04/19 10:54:14;;;;;;;3.93;3.20;;;9.50;99.90;;;;;;5393856;26;20282;-59
2024/04/19 10:56:42;;;;;;;5.60;4.50;;;9.50;99.90;;;;;;5393471;26;20274;-59
2024/04/19 10:59:11;;;;;;;3.80;3.40;;;9.60;99.90;;;;;;5393980;26;20274;-58
2024/04/19 11:01:41;;;;;;;8.23;7.43;;;9.60;99.90;;;;;;5402500;26;20700;-66
2024/04/19 11:04:11;;;;;;;5.30;4.57;;;9.80;99.90;;;;;;5400846;26;20235;-64
2024/04/19 11:06:39;;;;;;;5.70;4.30;;;9.80;99.90;;;;;;5394310;26;20275;-64
2024/04/19 11:09:10;;;;;;;6.03;4.07;;;9.90;99.90;;;;;;5394622;26;20579;-65
2024/04/19 11:11:42;;;;;;;3.90;3.50;;;9.90;99.90;;;;;;5399439;26;20261;-64
2024/04/19 11:14:10;;;;;;;5.13;4.60;;;10.00;99.90;;;;;;5401202;26;20265;-64
2024/04/19 11:16:39;;;;;;;4.43;3.10;;;10.00;99.90;;;;;;5395640;26;20280;-64
2024/04/19 11:19:07;;;;;;;7.13;6.40;;;10.00;99.90;;;;;;5395383;26;20252;-63
2024/04/19 11:21:36;;;;;;;7.30;5.07;;;9.90;99.90;;;;;;5399254;26;20239;-64
2024/04/19 11:24:02;;;;;;;7.07;5.70;;;9.80;99.90;;;;;;5400357;26;20274;-63
2024/04/19 11:26:33;;;;;;;2.87;2.60;;;9.80;99.90;;;;;;5397483;26;20327;-64
2024/04/19 11:29:01;;;;;;;3.33;2.50;;;9.80;99.90;;;;;;5393294;26;20236;-64
2024/04/19 11:31:30;;;;;;;2.53;2.20;;;9.70;99.90;;;;;;5396936;26;20236;-64
2024/04/19 11:34:01;;;;;;;9.67;7.70;;;9.70;99.90;;;;;;5400477;26;20230;-65
2024/04/19 11:36:30;;;;;;;4.00;2.60;;;9.70;99.90;;;;;;5395851;26;20309;-60
2024/04/19 11:38:58;;;;;;;4.90;4.03;;;9.70;99.90;;;;;;5393149;26;20240;-62
2024/04/19 11:41:27;;;;;;;4.60;3.30;;;9.70;99.90;;;;;;5395246;26;20232;-64
2024/04/19 11:43:59;;;;;;;2.70;2.40;;;9.80;99.90;;;;;;5399608;26;20235;-64
2024/04/19 11:46:28;;;;;;;3.53;2.57;;;9.70;99.90;;;;;;5396630;26;20779;-63
2024/04/19 11:48:59;;;;;;;8.33;7.00;;;9.70;99.90;;;;;;5395443;26;20295;-63
2024/04/19 11:51:28;;;;;;;2.90;2.60;;;9.70;99.90;;;;;;5398889;26;20291;-64
2024/04/19 11:53:56;;;;;;;3.53;2.70;;;9.70;99.90;;;;;;5402981;26;20231;-64
2024/04/19 11:56:25;;;;;;;2.93;2.20;;;9.60;99.90;;;;;;5400700;26;20265;-64
2024/04/19 11:58:54;;;;;;;2.30;2.03;;;9.60;99.90;;;;;;5396625;26;20240;-64
2024/04/19 12:01:25;;;;;;;3.53;2.87;;;9.80;99.90;;;;;;5397234;26;20582;-63
2024/04/19 12:03:53;;;;;;;3.80;2.90;;;9.90;99.90;;;;;;5402804;26;20230;-64
2024/04/19 12:06:23;;;;;;;3.63;2.23;;;10.00;99.90;;;;;;5401302;26;20661;-63
2024/04/19 12:08:53;;;;;;;5.03;4.43;;;10.00;99.90;;;;;;5396339;26;20244;-63
2024/04/19 12:11:21;;;;;;;2.57;2.00;;;10.00;99.90;;;;;;5396792;26;20672;-64
2024/04/19 12:13:51;;;;;;;3.23;2.93;;;9.90;99.90;;;;;;5402442;26;20230;-65
2024/04/19 12:16:19;;;;;;;3.07;2.73;;;9.90;99.90;;;;;;5402119;26;20269;-64
2024/04/19 12:18:50;;;;;;;2.33;2.00;;;9.80;99.90;;;;;;5396339;26;20232;-64
2024/04/19 12:21:18;;;;;;;1.70;1.50;;;9.70;99.90;;;;;;5396306;26;20269;-64
2024/04/19 12:23:47;;;;;;;1.93;1.50;;;9.50;99.90;;;;;;5402234;26;20269;-63
2024/04/19 12:26:15;;;;;;;1.23;1.13;;;9.40;99.90;;;;;;5402163;26;20247;-64
2024/04/19 12:28:41;;;;;;;1.50;1.40;;;9.40;99.90;;;;;;5396118;26;20287;-64
2024/04/19 12:31:10;;;;;;;1.60;1.50;;;9.40;99.90;;;;;;5395293;26;20235;-63
2024/04/19 12:33:38;;;;;;;3.30;1.70;;;9.30;99.90;;;;;;5400640;26;20744;-64
2024/04/19 12:36:09;;;;;;;2.57;1.37;;;9.20;99.90;;;;;;5402150;26;20269;-64
2024/04/19 12:38:37;;;;;;;1.23;1.13;;;9.30;99.90;;;;;;5397260;26;20235;-63
2024/04/19 12:41:06;;;;;;;2.87;1.37;;;9.30;99.90;;;;;;5395431;26;20232;-63
2024/04/19 12:43:34;;;;;;;1.70;1.60;;;9.30;99.90;;;;;;5399390;26;20279;-65
2024/04/19 12:46:03;;;;;;;3.90;1.53;;;9.40;99.90;;;;;;5401869;26;20335;-63
2024/04/19 12:48:31;;;;;;;1.57;1.47;;;9.60;99.90;;;;;;5397910;26;20247;-63
2024/04/19 12:51:00;;;;;;;1.67;1.20;;;9.80;99.90;;;;;;5395254;26;20263;-62
2024/04/19 12:53:31;;;;;;;1.37;1.20;;;9.90;99.90;;;;;;5398468;26;20270;-63
2024/04/19 12:55:59;;;;;;;3.23;1.30;;;10.10;99.90;;;;;;5402671;26;20720;-63
2024/04/19 12:58:27;;;;;;;1.47;1.10;;;10.10;99.90;;;;;;5398918;26;20235;-63
2024/04/19 13:01:01;;;;;;;3.20;1.80;;;10.20;99.90;;;;;;5395212;26;20274;-63
2024/04/19 13:03:29;;;;;;;3.77;2.30;;;10.20;99.90;;;;;;5396589;26;20248;-63
2024/04/19 13:05:57;;;;;;;6.90;5.97;;;10.20;99.90;;;;;;5401056;26;20632;-63
2024/04/19 13:08:26;;;;;;;2.73;1.50;;;10.20;99.90;;;;;;5400253;26;20618;-63
2024/04/19 13:10:57;;;;;;;2.20;1.67;;;10.10;99.90;;;;;;5394586;26;20370;-63